Tasman — ZDKI2 — position and weather

sailwx.info

Track history (hours):
 
Tides and Currents Weather Stations Pressure Air Temp Water Temp Dewpoint Dewpoint Depression Visibility Wind Speed Wind Dir Waves Ship Positions

Tasman

Last reported at 2015-May-27 21:19 UTC. Time now 2015-May-27 23:53 UTC.
Position N 53°06' E 001°23'.

Length 90 m; draft 4 m.

Type: Ship. MMSI: 23617000.

Date/timePositionNaut miles runAvg speedWind from/ knotsBaromVisibWave heightAir tempDewpointWater temp
2015-May-27 21:19N 53°06' E 001°23'1013.5
2015-May-27 20:33N 52°58' E 001°33'1413.6
2015-May-27 19:33N 52°49' E 001°50'1312.9
2015-May-27 18:33N 52°38' E 002°01'1212.1
2015-May-27 17:33N 52°27' E 002°09'6311.5
2015-May-27 12:06N 51°28' E 002°45'610.5
2015-May-27 11:33N 51°22' E 002°46'1212.0
2015-May-27 10:33N 51°22' E 003°05'5 4.9
2015-May-27 09:32N 51°20' E 003°12'0 0.3
2015-May-27 08:33N 51°19' E 003°12'0 0.0
2015-May-27 07:24N 51°19' E 003°12'0 0.0
2015-May-27 06:28N 51°19' E 003°12'0 0.0
2015-May-27 05:33N 51°19' E 003°12'0 0.0
2015-May-27 04:33N 51°19' E 003°12'0 0.0
2015-May-27 03:33N 51°19' E 003°12'0 0.0
2015-May-27 02:33N 51°19' E 003°12'0 0.0
2015-May-27 01:33N 51°19' E 003°12'0 0.0
2015-May-26 16:28N 51°19' E 003°12'0 0.0
2015-May-26 15:20N 51°19' E 003°12'0 0.0
2015-May-26 14:07N 51°19' E 003°12'0 0.0
2015-May-26 13:11N 51°19' E 003°12'0 0.0
2015-May-26 12:29N 51°19' E 003°12'0 0.0
2015-May-26 11:32N 51°19' E 003°12'0 0.0
2015-May-26 01:04N 51°19' E 003°12'0 0.0
2015-May-25 19:32N 51°19' E 003°12'0 0.0
2015-May-25 13:32N 51°19' E 003°12'0 0.0
2015-May-24 23:08N 51°19' E 003°12'0 0.0
2015-May-24 16:14N 51°19' E 003°12'0 0.0
2015-May-24 15:26N 51°19' E 003°12'0 0.0
2015-May-24 10:11N 51°19' E 003°12'0 0.0
2015-May-24 07:16N 51°19' E 003°12'0 0.0
2015-May-24 06:22N 51°19' E 003°12'0 0.0
2015-May-24 05:27N 51°19' E 003°12'0 0.0
2015-May-24 04:12N 51°19' E 003°12'0 0.0
2015-May-24 03:21N 51°19' E 003°12'0 0.0
2015-May-24 01:26N 51°19' E 003°12'0 0.0
2015-May-23 19:09N 51°19' E 003°12'1 1.1
2015-May-23 18:33N 51°19' E 003°12'1 1.3
2015-May-23 17:33N 51°20' E 003°13'6 6.1
2015-May-23 16:33N 51°22' E 003°04'1212.0
2015-May-23 15:34N 51°22' E 002°45'1210.9
2015-May-23 14:30N 51°21' E 002°26'1111.5
2015-May-23 13:32N 51°15' E 002°11'1110.3
2015-May-23 12:28N 51°10' E 001°56'8 9.1
2015-May-23 11:33N 51°05' E 001°45'9 8.6
2015-May-23 10:31N 50°58' E 001°36'19311.4
2015-May-22 17:33N 50°06' W 003°17'185 9.6
2015-May-21 22:17N 51°24' W 007°43'911.8
2015-May-21 21:34N 51°30' W 007°52'1211.7
2015-May-21 20:33N 51°39' W 008°04'1111.2
2015-May-21 19:34N 51°48' W 008°16'6 6.4
2015-May-21 18:33N 51°53' W 008°21'4 4.0
2015-May-21 17:33N 51°54' W 008°28'0 0.0
2015-May-21 16:31N 51°54' W 008°28'0 0.0
2015-May-21 15:31N 51°54' W 008°28'0 0.0
2015-May-21 14:33N 51°54' W 008°28'0 0.0
2015-May-21 13:33N 51°54' W 008°28'0 0.0
2015-May-21 12:32N 51°54' W 008°28'0 0.0
2015-May-21 11:32N 51°54' W 008°28'0 0.0
2015-May-21 10:32N 51°54' W 008°28'0 0.0
2015-May-21 09:28N 51°54' W 008°28'0 0.0
2015-May-21 08:31N 51°54' W 008°28'0 0.0
2015-May-21 07:33N 51°54' W 008°28'0 0.0
2015-May-21 06:33N 51°54' W 008°28'0 0.0
2015-May-21 05:32N 51°54' W 008°28'0 0.0
2015-May-21 04:32N 51°54' W 008°28'0 0.0
2015-May-21 03:32N 51°54' W 008°28'0 0.0
2015-May-21 02:31N 51°54' W 008°28'0 0.0
2015-May-21 01:31N 51°54' W 008°28'0 0.0
2015-May-21 00:30N 51°54' W 008°28'0 0.0
2015-May-20 23:33N 51°54' W 008°28'0 0.0
2015-May-20 22:32N 51°54' W 008°28'0 0.0
2015-May-20 21:32N 51°54' W 008°28'0 0.0
2015-May-20 20:32N 51°54' W 008°28'0 0.0
2015-May-20 19:31N 51°54' W 008°28'0 0.0
2015-May-20 18:31N 51°54' W 008°28'0 0.0
2015-May-20 17:33N 51°54' W 008°28'0 0.0
2015-May-20 16:33N 51°54' W 008°28'0 0.0
2015-May-20 15:32N 51°54' W 008°28'0 0.0
2015-May-20 14:32N 51°54' W 008°28'0 0.0
2015-May-20 13:32N 51°54' W 008°28'0 0.0
2015-May-20 12:31N 51°54' W 008°27'0 0.0
2015-May-20 11:31N 51°54' W 008°27'0 0.0
2015-May-20 10:30N 51°54' W 008°27'0 0.0
2015-May-20 09:33N 51°54' W 008°27'0 0.0
2015-May-20 08:32N 51°54' W 008°27'0 0.0
2015-May-20 07:32N 51°54' W 008°27'0 0.0
2015-May-20 06:32N 51°54' W 008°27'0 0.0
2015-May-20 05:31N 51°54' W 008°27'0 0.0
2015-May-20 04:28N 51°54' W 008°27'0 0.0
2015-May-20 03:33N 51°54' W 008°27'0 0.0
2015-May-20 02:33N 51°54' W 008°27'0 0.0
2015-May-20 01:32N 51°54' W 008°27'0 0.0
2015-May-20 00:32N 51°54' W 008°27'0 0.0
2015-May-19 23:32N 51°54' W 008°27'0 0.0
2015-May-19 22:31N 51°54' W 008°27'0 0.0
2015-May-19 21:31N 51°54' W 008°27'0 0.0
2015-May-19 20:33N 51°54' W 008°27'0 0.0
2015-May-19 19:30N 51°54' W 008°27'0 0.0
2015-May-19 18:32N 51°54' W 008°27'0 0.0
2015-May-19 17:32N 51°54' W 008°27'1 0.9
2015-May-19 16:34N 51°54' W 008°26'9 8.7
2015-May-19 15:33N 51°48' W 008°16'8 7.7
2015-May-19 14:33N 51°45' W 008°05'1110.6
2015-May-19 13:33N 51°46' W 007°48'1110.8
2015-May-19 12:33N 51°50' W 007°31'1110.9
2015-May-19 11:33N 51°53' W 007°15'1110.8
2015-May-19 10:33N 51°57' W 006°58'1010.0
2015-May-19 09:33N 52°01' W 006°43'104 9.3
2015-May-18 22:20N 53°43' W 006°15'2 0.1
2015-May-17 23:16N 53°43' W 006°18'2 2.6
2015-May-17 22:33N 53°44' W 006°15'3 2.8
2015-May-17 21:33N 53°43' W 006°11'  
Track history (hours):
 
Tides and Currents Weather Stations Pressure Air Temp Water Temp Dewpoint Dewpoint Depression Visibility Wind Speed Wind Dir Waves Ship Positions

Tasman

Last reported at 2015-May-27 21:19 UTC. Time now 2015-May-27 23:53 UTC.
Position N 53°06' E 001°23'.

Length 90 m; draft 4 m.

Type: Ship. MMSI: 23617000.

Date/timePositionNaut miles runAvg speedWind from/ knotsBaromVisibWave heightAir tempDewpointWater temp
2015-May-27 21:19N 53°06' E 001°23'1013.5
2015-May-27 20:33N 52°58' E 001°33'1413.6
2015-May-27 19:33N 52°49' E 001°50'1312.9
2015-May-27 18:33N 52°38' E 002°01'1212.1
2015-May-27 17:33N 52°27' E 002°09'6311.5
2015-May-27 12:06N 51°28' E 002°45'610.5
2015-May-27 11:33N 51°22' E 002°46'1212.0
2015-May-27 10:33N 51°22' E 003°05'5 4.9
2015-May-27 09:32N 51°20' E 003°12'0 0.3
2015-May-27 08:33N 51°19' E 003°12'0 0.0
2015-May-27 07:24N 51°19' E 003°12'0 0.0
2015-May-27 06:28N 51°19' E 003°12'0 0.0
2015-May-27 05:33N 51°19' E 003°12'0 0.0
2015-May-27 04:33N 51°19' E 003°12'0 0.0
2015-May-27 03:33N 51°19' E 003°12'0 0.0
2015-May-27 02:33N 51°19' E 003°12'0 0.0
2015-May-27 01:33N 51°19' E 003°12'0 0.0
2015-May-26 16:28N 51°19' E 003°12'0 0.0
2015-May-26 15:20N 51°19' E 003°12'0 0.0
2015-May-26 14:07N 51°19' E 003°12'0 0.0
2015-May-26 13:11N 51°19' E 003°12'0 0.0
2015-May-26 12:29N 51°19' E 003°12'0 0.0
2015-May-26 11:32N 51°19' E 003°12'0 0.0
2015-May-26 01:04N 51°19' E 003°12'0 0.0
2015-May-25 19:32N 51°19' E 003°12'0 0.0
2015-May-25 13:32N 51°19' E 003°12'0 0.0
2015-May-24 23:08N 51°19' E 003°12'0 0.0
2015-May-24 16:14N 51°19' E 003°12'0 0.0
2015-May-24 15:26N 51°19' E 003°12'0 0.0
2015-May-24 10:11N 51°19' E 003°12'0 0.0
2015-May-24 07:16N 51°19' E 003°12'0 0.0
2015-May-24 06:22N 51°19' E 003°12'0 0.0
2015-May-24 05:27N 51°19' E 003°12'0 0.0
2015-May-24 04:12N 51°19' E 003°12'0 0.0
2015-May-24 03:21N 51°19' E 003°12'0 0.0
2015-May-24 01:26N 51°19' E 003°12'0 0.0
2015-May-23 19:09N 51°19' E 003°12'1 1.1
2015-May-23 18:33N 51°19' E 003°12'1 1.3
2015-May-23 17:33N 51°20' E 003°13'6 6.1
2015-May-23 16:33N 51°22' E 003°04'1212.0
2015-May-23 15:34N 51°22' E 002°45'1210.9
2015-May-23 14:30N 51°21' E 002°26'1111.5
2015-May-23 13:32N 51°15' E 002°11'1110.3
2015-May-23 12:28N 51°10' E 001°56'8 9.1
2015-May-23 11:33N 51°05' E 001°45'9 8.6
2015-May-23 10:31N 50°58' E 001°36'19311.4
2015-May-22 17:33N 50°06' W 003°17'185 9.6
2015-May-21 22:17N 51°24' W 007°43'911.8
2015-May-21 21:34N 51°30' W 007°52'1211.7
2015-May-21 20:33N 51°39' W 008°04'1111.2
2015-May-21 19:34N 51°48' W 008°16'6 6.4
2015-May-21 18:33N 51°53' W 008°21'4 4.0
2015-May-21 17:33N 51°54' W 008°28'0 0.0
2015-May-21 16:31N 51°54' W 008°28'0 0.0
2015-May-21 15:31N 51°54' W 008°28'0 0.0
2015-May-21 14:33N 51°54' W 008°28'0 0.0
2015-May-21 13:33N 51°54' W 008°28'0 0.0
2015-May-21 12:32N 51°54' W 008°28'0 0.0
2015-May-21 11:32N 51°54' W 008°28'0 0.0
2015-May-21 10:32N 51°54' W 008°28'0 0.0
2015-May-21 09:28N 51°54' W 008°28'0 0.0
2015-May-21 08:31N 51°54' W 008°28'0 0.0
2015-May-21 07:33N 51°54' W 008°28'0 0.0
2015-May-21 06:33N 51°54' W 008°28'0 0.0
2015-May-21 05:32N 51°54' W 008°28'0 0.0
2015-May-21 04:32N 51°54' W 008°28'0 0.0
2015-May-21 03:32N 51°54' W 008°28'0 0.0
2015-May-21 02:31N 51°54' W 008°28'0 0.0
2015-May-21 01:31N 51°54' W 008°28'0 0.0
2015-May-21 00:30N 51°54' W 008°28'0 0.0
2015-May-20 23:33N 51°54' W 008°28'0 0.0
2015-May-20 22:32N 51°54' W 008°28'0 0.0
2015-May-20 21:32N 51°54' W 008°28'0 0.0
2015-May-20 20:32N 51°54' W 008°28'0 0.0
2015-May-20 19:31N 51°54' W 008°28'0 0.0
2015-May-20 18:31N 51°54' W 008°28'0 0.0
2015-May-20 17:33N 51°54' W 008°28'0 0.0
2015-May-20 16:33N 51°54' W 008°28'0 0.0
2015-May-20 15:32N 51°54' W 008°28'0 0.0
2015-May-20 14:32N 51°54' W 008°28'0 0.0
2015-May-20 13:32N 51°54' W 008°28'0 0.0
2015-May-20 12:31N 51°54' W 008°27'0 0.0
2015-May-20 11:31N 51°54' W 008°27'0 0.0
2015-May-20 10:30N 51°54' W 008°27'0 0.0
2015-May-20 09:33N 51°54' W 008°27'0 0.0
2015-May-20 08:32N 51°54' W 008°27'0 0.0
2015-May-20 07:32N 51°54' W 008°27'0 0.0
2015-May-20 06:32N 51°54' W 008°27'0 0.0
2015-May-20 05:31N 51°54' W 008°27'0 0.0
2015-May-20 04:28N 51°54' W 008°27'0 0.0
2015-May-20 03:33N 51°54' W 008°27'0 0.0
2015-May-20 02:33N 51°54' W 008°27'0 0.0
2015-May-20 01:32N 51°54' W 008°27'0 0.0
2015-May-20 00:32N 51°54' W 008°27'0 0.0
2015-May-19 23:32N 51°54' W 008°27'0 0.0
2015-May-19 22:31N 51°54' W 008°27'0 0.0
2015-May-19 21:31N 51°54' W 008°27'0 0.0
2015-May-19 20:33N 51°54' W 008°27'0 0.0
2015-May-19 19:30N 51°54' W 008°27'0 0.0
2015-May-19 18:32N 51°54' W 008°27'0 0.0
2015-May-19 17:32N 51°54' W 008°27'1 0.9
2015-May-19 16:34N 51°54' W 008°26'9 8.7
2015-May-19 15:33N 51°48' W 008°16'8 7.7
2015-May-19 14:33N 51°45' W 008°05'1110.6
2015-May-19 13:33N 51°46' W 007°48'1110.8
2015-May-19 12:33N 51°50' W 007°31'1110.9
2015-May-19 11:33N 51°53' W 007°15'1110.8
2015-May-19 10:33N 51°57' W 006°58'1010.0
2015-May-19 09:33N 52°01' W 006°43'104 9.3
2015-May-18 22:20N 53°43' W 006°15'2 0.1
2015-May-17 23:16N 53°43' W 006°18'2 2.6
2015-May-17 22:33N 53°44' W 006°15'3 2.8
2015-May-17 21:33N 53°43' W 006°11'  

Dump ship's entire track history